sensor_id;sensor_type;location;lat;lon;timestamp;temperature;humidity
14682;DHT22;7429;52.498;13.480;2023-01-04T00:01:18;3.40;99.90
14682;DHT22;7429;52.498;13.480;2023-01-04T00:04:24;3.30;99.90
14682;DHT22;7429;52.498;13.480;2023-01-04T00:07:28;3.40;99.90
14682;DHT22;7429;52.498;13.480;2023-01-04T00:10:31;3.40;99.90
14682;DHT22;7429;52.498;13.480;2023-01-04T00:13:34;3.40;99.90
14682;DHT22;7429;52.498;13.480;2023-01-04T00:16:39;3.30;99.90
14682;DHT22;7429;52.498;13.480;2023-01-04T00:19:44;3.30;99.90
14682;DHT22;7429;52.498;13.480;2023-01-04T00:22:47;3.20;99.90
14682;DHT22;7429;52.498;13.480;2023-01-04T00:25:50;3.20;99.90
14682;DHT22;7429;52.498;13.480;2023-01-04T00:28:54;3.20;99.90
14682;DHT22;7429;52.498;13.480;2023-01-04T00:32:00;3.20;99.90
14682;DHT22;7429;52.498;13.480;2023-01-04T00:35:05;3.20;99.90
14682;DHT22;7429;52.498;13.480;2023-01-04T00:38:08;3.10;99.90
14682;DHT22;7429;52.498;13.480;2023-01-04T00:41:12;3.10;99.90
14682;DHT22;7429;52.498;13.480;2023-01-04T00:44:37;3.10;99.90
14682;DHT22;7429;52.498;13.480;2023-01-04T00:47:40;3.10;99.90
14682;DHT22;7429;52.498;13.480;2023-01-04T00:50:48;3.10;99.90
14682;DHT22;7429;52.498;13.480;2023-01-04T00:53:51;3.10;99.90
14682;DHT22;7429;52.498;13.480;2023-01-04T00:56:55;3.20;99.90
14682;DHT22;7429;52.498;13.480;2023-01-04T00:59:58;3.20;99.90
14682;DHT22;7429;52.498;13.480;2023-01-04T01:03:01;3.30;99.90
14682;DHT22;7429;52.498;13.480;2023-01-04T01:06:07;3.30;99.90
14682;DHT22;7429;52.498;13.480;2023-01-04T01:09:10;3.30;99.90
14682;DHT22;7429;52.498;13.480;2023-01-04T01:12:14;3.40;99.90
14682;DHT22;7429;52.498;13.480;2023-01-04T01:15:17;3.50;99.90
14682;DHT22;7429;52.498;13.480;2023-01-04T01:18:21;3.40;99.90
14682;DHT22;7429;52.498;13.480;2023-01-04T01:21:28;3.50;99.90
14682;DHT22;7429;52.498;13.480;2023-01-04T01:24:34;3.50;99.90
14682;DHT22;7429;52.498;13.480;2023-01-04T01:27:38;3.50;99.90
14682;DHT22;7429;52.498;13.480;2023-01-04T01:30:42;3.50;99.90
14682;DHT22;7429;52.498;13.480;2023-01-04T01:33:47;3.50;99.90
14682;DHT22;7429;52.498;13.480;2023-01-04T01:36:53;3.50;99.90
14682;DHT22;7429;52.498;13.480;2023-01-04T01:39:57;3.50;99.90
14682;DHT22;7429;52.498;13.480;2023-01-04T01:43:00;3.50;99.90
14682;DHT22;7429;52.498;13.480;2023-01-04T01:46:03;3.50;99.90
14682;DHT22;7429;52.498;13.480;2023-01-04T01:49:09;3.60;99.90
14682;DHT22;7429;52.498;13.480;2023-01-04T01:52:24;3.60;99.90
14682;DHT22;7429;52.498;13.480;2023-01-04T01:55:32;3.50;99.90
14682;DHT22;7429;52.498;13.480;2023-01-04T01:58:39;3.50;99.90
14682;DHT22;7429;52.498;13.480;2023-01-04T02:01:44;3.50;99.90
14682;DHT22;7429;52.498;13.480;2023-01-04T02:04:49;3.50;99.90
14682;DHT22;7429;52.498;13.480;2023-01-04T02:07:54;3.50;99.90
14682;DHT22;7429;52.498;13.480;2023-01-04T02:11:00;3.50;99.90
14682;DHT22;7429;52.498;13.480;2023-01-04T02:14:04;3.50;99.90
14682;DHT22;7429;52.498;13.480;2023-01-04T02:17:35;3.50;99.90
14682;DHT22;7429;52.498;13.480;2023-01-04T02:20:47;3.40;99.90
14682;DHT22;7429;52.498;13.480;2023-01-04T02:24:16;3.40;99.90
14682;DHT22;7429;52.498;13.480;2023-01-04T02:27:40;3.40;99.90
14682;DHT22;7429;52.498;13.480;2023-01-04T02:31:09;3.50;99.90
14682;DHT22;7429;52.498;13.480;2023-01-04T02:34:22;3.40;99.90
14682;DHT22;7429;52.498;13.480;2023-01-04T02:37:38;3.40;99.90
14682;DHT22;7429;52.498;13.480;2023-01-04T02:40:47;3.40;99.90
14682;DHT22;7429;52.498;13.480;2023-01-04T02:44:01;3.30;99.90
14682;DHT22;7429;52.498;13.480;2023-01-04T02:47:29;3.40;99.90
14682;DHT22;7429;52.498;13.480;2023-01-04T02:50:54;3.50;99.90
14682;DHT22;7429;52.498;13.480;2023-01-04T02:54:01;3.50;99.90
14682;DHT22;7429;52.498;13.480;2023-01-04T02:57:20;3.50;99.90
14682;DHT22;7429;52.498;13.480;2023-01-04T03:00:41;3.50;99.90
14682;DHT22;7429;52.498;13.480;2023-01-04T03:04:15;3.60;99.90
14682;DHT22;7429;52.498;13.480;2023-01-04T03:07:50;3.50;99.90
14682;DHT22;7429;52.498;13.480;2023-01-04T03:10:59;3.50;99.90
14682;DHT22;7429;52.498;13.480;2023-01-04T03:14:12;3.50;99.90
14682;DHT22;7429;52.498;13.480;2023-01-04T03:17:36;3.50;99.90
14682;DHT22;7429;52.498;13.480;2023-01-04T03:20:46;3.40;99.90
14682;DHT22;7429;52.498;13.480;2023-01-04T03:23:54;3.40;99.90
14682;DHT22;7429;52.498;13.480;2023-01-04T03:27:18;3.40;99.90
14682;DHT22;7429;52.498;13.480;2023-01-04T03:30:49;3.40;99.90
14682;DHT22;7429;52.498;13.480;2023-01-04T03:34:11;3.40;99.90
14682;DHT22;7429;52.498;13.480;2023-01-04T03:37:39;3.40;99.90
14682;DHT22;7429;52.498;13.480;2023-01-04T03:40:54;3.50;99.90
14682;DHT22;7429;52.498;13.480;2023-01-04T03:44:21;3.40;99.90
14682;DHT22;7429;52.498;13.480;2023-01-04T03:47:50;3.40;99.90
14682;DHT22;7429;52.498;13.480;2023-01-04T03:51:19;3.40;99.90
14682;DHT22;7429;52.498;13.480;2023-01-04T03:54:28;3.40;99.90
14682;DHT22;7429;52.498;13.480;2023-01-04T03:57:35;3.50;99.90
14682;DHT22;7429;52.498;13.480;2023-01-04T04:00:38;3.50;99.90
14682;DHT22;7429;52.498;13.480;2023-01-04T04:03:41;3.60;99.90
14682;DHT22;7429;52.498;13.480;2023-01-04T04:07:03;3.60;99.90
14682;DHT22;7429;52.498;13.480;2023-01-04T04:10:25;3.50;99.90
14682;DHT22;7429;52.498;13.480;2023-01-04T04:13:28;3.60;99.90
14682;DHT22;7429;52.498;13.480;2023-01-04T04:16:32;3.70;99.90
14682;DHT22;7429;52.498;13.480;2023-01-04T04:19:35;3.60;99.90
14682;DHT22;7429;52.498;13.480;2023-01-04T04:22:38;3.60;99.90
14682;DHT22;7429;52.498;13.480;2023-01-04T04:25:42;3.60;99.90
14682;DHT22;7429;52.498;13.480;2023-01-04T04:28:46;3.60;99.90
14682;DHT22;7429;52.498;13.480;2023-01-04T04:31:51;3.60;99.90
14682;DHT22;7429;52.498;13.480;2023-01-04T04:34:55;3.70;99.90
14682;DHT22;7429;52.498;13.480;2023-01-04T04:38:00;3.70;99.90
14682;DHT22;7429;52.498;13.480;2023-01-04T04:41:09;3.80;99.90
14682;DHT22;7429;52.498;13.480;2023-01-04T04:44:33;3.80;99.90
14682;DHT22;7429;52.498;13.480;2023-01-04T04:47:37;3.80;99.90
14682;DHT22;7429;52.498;13.480;2023-01-04T04:50:40;3.90;99.90
14682;DHT22;7429;52.498;13.480;2023-01-04T04:53:44;3.90;99.90
14682;DHT22;7429;52.498;13.480;2023-01-04T04:56:48;3.90;99.90
14682;DHT22;7429;52.498;13.480;2023-01-04T04:59:52;3.90;99.90
14682;DHT22;7429;52.498;13.480;2023-01-04T05:02:57;3.90;99.90
14682;DHT22;7429;52.498;13.480;2023-01-04T05:06:01;4.00;99.90
14682;DHT22;7429;52.498;13.480;2023-01-04T05:09:04;4.00;99.90
14682;DHT22;7429;52.498;13.480;2023-01-04T05:12:11;4.00;99.90
14682;DHT22;7429;52.498;13.480;2023-01-04T05:15:34;4.10;99.90
14682;DHT22;7429;52.498;13.480;2023-01-04T05:18:38;4.10;99.90
14682;DHT22;7429;52.498;13.480;2023-01-04T05:21:42;4.10;99.90
14682;DHT22;7429;52.498;13.480;2023-01-04T05:24:45;4.10;99.90
14682;DHT22;7429;52.498;13.480;2023-01-04T05:27:50;4.20;99.90
14682;DHT22;7429;52.498;13.480;2023-01-04T05:30:54;4.20;99.90
14682;DHT22;7429;52.498;13.480;2023-01-04T05:33:58;4.20;99.90
14682;DHT22;7429;52.498;13.480;2023-01-04T05:37:01;4.20;99.90
14682;DHT22;7429;52.498;13.480;2023-01-04T05:40:05;4.30;99.90
14682;DHT22;7429;52.498;13.480;2023-01-04T05:43:10;4.30;99.90
14682;DHT22;7429;52.498;13.480;2023-01-04T05:46:15;4.40;99.90
14682;DHT22;7429;52.498;13.480;2023-01-04T05:49:18;4.40;99.90
14682;DHT22;7429;52.498;13.480;2023-01-04T05:52:22;4.40;99.90
14682;DHT22;7429;52.498;13.480;2023-01-04T05:55:26;4.40;99.90
14682;DHT22;7429;52.498;13.480;2023-01-04T05:58:31;4.40;99.90
14682;DHT22;7429;52.498;13.480;2023-01-04T06:01:34;4.50;99.90
14682;DHT22;7429;52.498;13.480;2023-01-04T06:04:39;4.50;99.90
14682;DHT22;7429;52.498;13.480;2023-01-04T06:07:42;4.60;99.90
14682;DHT22;7429;52.498;13.480;2023-01-04T06:10:51;4.60;99.90
14682;DHT22;7429;52.498;13.480;2023-01-04T06:14:00;4.60;99.90
14682;DHT22;7429;52.498;13.480;2023-01-04T06:17:04;4.60;99.90
14682;DHT22;7429;52.498;13.480;2023-01-04T06:20:09;4.60;99.90
14682;DHT22;7429;52.498;13.480;2023-01-04T06:23:16;4.70;99.90
14682;DHT22;7429;52.498;13.480;2023-01-04T06:26:19;4.60;99.90
14682;DHT22;7429;52.498;13.480;2023-01-04T06:29:24;4.70;99.90
14682;DHT22;7429;52.498;13.480;2023-01-04T06:32:27;4.80;99.90
14682;DHT22;7429;52.498;13.480;2023-01-04T06:35:30;4.90;99.90
14682;DHT22;7429;52.498;13.480;2023-01-04T06:38:33;5.00;99.90
14682;DHT22;7429;52.498;13.480;2023-01-04T06:41:37;5.10;99.90
14682;DHT22;7429;52.498;13.480;2023-01-04T06:44:41;5.10;99.90
14682;DHT22;7429;52.498;13.480;2023-01-04T06:47:44;5.20;99.90
14682;DHT22;7429;52.498;13.480;2023-01-04T06:50:48;5.30;99.90
14682;DHT22;7429;52.498;13.480;2023-01-04T06:53:52;5.30;99.90
14682;DHT22;7429;52.498;13.480;2023-01-04T06:56:55;5.40;99.90
14682;DHT22;7429;52.498;13.480;2023-01-04T06:59:59;5.40;99.90
14682;DHT22;7429;52.498;13.480;2023-01-04T07:03:02;5.50;99.90
14682;DHT22;7429;52.498;13.480;2023-01-04T07:06:16;5.50;99.90
14682;DHT22;7429;52.498;13.480;2023-01-04T07:09:19;5.60;99.90
14682;DHT22;7429;52.498;13.480;2023-01-04T07:12:23;5.70;99.90
14682;DHT22;7429;52.498;13.480;2023-01-04T07:15:27;5.80;99.90
14682;DHT22;7429;52.498;13.480;2023-01-04T07:18:44;6.00;99.90
14682;DHT22;7429;52.498;13.480;2023-01-04T07:21:47;6.10;99.90
14682;DHT22;7429;52.498;13.480;2023-01-04T07:24:50;6.20;99.90
14682;DHT22;7429;52.498;13.480;2023-01-04T07:27:55;6.30;99.90
14682;DHT22;7429;52.498;13.480;2023-01-04T07:31:04;6.30;99.90
14682;DHT22;7429;52.498;13.480;2023-01-04T07:34:08;6.30;99.90
14682;DHT22;7429;52.498;13.480;2023-01-04T07:37:11;6.40;99.90
14682;DHT22;7429;52.498;13.480;2023-01-04T07:40:16;6.30;99.90
14682;DHT22;7429;52.498;13.480;2023-01-04T07:43:20;6.30;99.90
14682;DHT22;7429;52.498;13.480;2023-01-04T07:46:30;6.30;99.90
14682;DHT22;7429;52.498;13.480;2023-01-04T07:49:34;6.20;99.90
14682;DHT22;7429;52.498;13.480;2023-01-04T07:52:37;6.20;99.90
14682;DHT22;7429;52.498;13.480;2023-01-04T07:55:40;6.20;99.90
14682;DHT22;7429;52.498;13.480;2023-01-04T07:58:43;6.20;99.90
14682;DHT22;7429;52.498;13.480;2023-01-04T08:01:49;6.20;99.90
14682;DHT22;7429;52.498;13.480;2023-01-04T08:04:54;6.20;99.90
14682;DHT22;7429;52.498;13.480;2023-01-04T08:07:58;6.20;99.90
14682;DHT22;7429;52.498;13.480;2023-01-04T08:11:02;6.20;99.90
14682;DHT22;7429;52.498;13.480;2023-01-04T08:14:06;6.20;99.90
14682;DHT22;7429;52.498;13.480;2023-01-04T08:17:10;6.20;99.90
14682;DHT22;7429;52.498;13.480;2023-01-04T08:20:13;6.20;99.90
14682;DHT22;7429;52.498;13.480;2023-01-04T08:23:16;6.20;99.90
14682;DHT22;7429;52.498;13.480;2023-01-04T08:26:20;6.20;99.90
14682;DHT22;7429;52.498;13.480;2023-01-04T08:29:23;6.20;99.90
14682;DHT22;7429;52.498;13.480;2023-01-04T08:32:38;6.20;99.90
14682;DHT22;7429;52.498;13.480;2023-01-04T08:35:41;6.30;99.90
14682;DHT22;7429;52.498;13.480;2023-01-04T08:38:44;6.30;99.90
14682;DHT22;7429;52.498;13.480;2023-01-04T08:42:01;6.30;99.90
14682;DHT22;7429;52.498;13.480;2023-01-04T08:45:23;6.30;99.90
14682;DHT22;7429;52.498;13.480;2023-01-04T08:48:27;6.30;99.90
14682;DHT22;7429;52.498;13.480;2023-01-04T08:51:30;6.40;99.90
14682;DHT22;7429;52.498;13.480;2023-01-04T08:54:34;6.40;99.90
14682;DHT22;7429;52.498;13.480;2023-01-04T08:57:37;6.40;99.90
14682;DHT22;7429;52.498;13.480;2023-01-04T09:00:40;6.50;99.90
14682;DHT22;7429;52.498;13.480;2023-01-04T09:03:44;6.50;99.90
14682;DHT22;7429;52.498;13.480;2023-01-04T09:06:47;6.50;99.90
14682;DHT22;7429;52.498;13.480;2023-01-04T09:09:51;6.60;99.90
14682;DHT22;7429;52.498;13.480;2023-01-04T09:12:54;6.60;99.90
14682;DHT22;7429;52.498;13.480;2023-01-04T09:15:59;6.60;99.90
14682;DHT22;7429;52.498;13.480;2023-01-04T09:19:04;6.60;99.90
14682;DHT22;7429;52.498;13.480;2023-01-04T09:22:08;6.60;99.90
14682;DHT22;7429;52.498;13.480;2023-01-04T09:25:11;6.70;99.90
14682;DHT22;7429;52.498;13.480;2023-01-04T09:28:14;6.70;99.90
14682;DHT22;7429;52.498;13.480;2023-01-04T09:31:19;6.70;99.90
14682;DHT22;7429;52.498;13.480;2023-01-04T09:34:25;6.70;99.90
14682;DHT22;7429;52.498;13.480;2023-01-04T09:37:28;6.70;99.90
14682;DHT22;7429;52.498;13.480;2023-01-04T09:40:45;6.70;99.90
14682;DHT22;7429;52.498;13.480;2023-01-04T09:43:56;6.80;99.90
14682;DHT22;7429;52.498;13.480;2023-01-04T09:47:06;6.80;99.90
14682;DHT22;7429;52.498;13.480;2023-01-04T09:50:16;6.80;99.90
14682;DHT22;7429;52.498;13.480;2023-01-04T09:53:23;6.80;99.90
14682;DHT22;7429;52.498;13.480;2023-01-04T09:56:31;6.90;99.90
14682;DHT22;7429;52.498;13.480;2023-01-04T09:59:39;6.90;99.90
14682;DHT22;7429;52.498;13.480;2023-01-04T10:02:45;6.90;99.90
14682;DHT22;7429;52.498;13.480;2023-01-04T10:05:52;6.90;99.90
14682;DHT22;7429;52.498;13.480;2023-01-04T10:09:01;6.90;99.90
14682;DHT22;7429;52.498;13.480;2023-01-04T10:12:14;6.90;99.90
14682;DHT22;7429;52.498;13.480;2023-01-04T10:15:29;7.00;99.90
14682;DHT22;7429;52.498;13.480;2023-01-04T10:18:42;7.00;99.90
14682;DHT22;7429;52.498;13.480;2023-01-04T10:22:21;7.00;99.90
14682;DHT22;7429;52.498;13.480;2023-01-04T10:25:32;7.00;99.90
14682;DHT22;7429;52.498;13.480;2023-01-04T10:28:53;7.00;99.90
14682;DHT22;7429;52.498;13.480;2023-01-04T10:32:15;7.00;99.90
14682;DHT22;7429;52.498;13.480;2023-01-04T10:35:23;7.00;99.90
14682;DHT22;7429;52.498;13.480;2023-01-04T10:38:31;7.00;99.90
14682;DHT22;7429;52.498;13.480;2023-01-04T10:41:42;7.00;99.90
14682;DHT22;7429;52.498;13.480;2023-01-04T10:45:00;7.10;99.90
14682;DHT22;7429;52.498;13.480;2023-01-04T10:48:14;7.10;99.90
14682;DHT22;7429;52.498;13.480;2023-01-04T10:51:29;7.10;99.90
14682;DHT22;7429;52.498;13.480;2023-01-04T10:54:41;7.10;99.90
14682;DHT22;7429;52.498;13.480;2023-01-04T10:57:52;7.10;99.90
14682;DHT22;7429;52.498;13.480;2023-01-04T11:01:01;7.10;99.90
14682;DHT22;7429;52.498;13.480;2023-01-04T11:04:12;7.10;99.90
14682;DHT22;7429;52.498;13.480;2023-01-04T11:07:24;7.10;99.90
14682;DHT22;7429;52.498;13.480;2023-01-04T11:10:35;7.20;99.90
14682;DHT22;7429;52.498;13.480;2023-01-04T11:13:41;7.20;99.90
14682;DHT22;7429;52.498;13.480;2023-01-04T11:16:47;7.20;99.90
14682;DHT22;7429;52.498;13.480;2023-01-04T11:19:53;7.20;99.90
14682;DHT22;7429;52.498;13.480;2023-01-04T11:23:00;7.30;99.90
14682;DHT22;7429;52.498;13.480;2023-01-04T11:26:14;7.30;99.90
14682;DHT22;7429;52.498;13.480;2023-01-04T11:29:28;7.30;99.90
14682;DHT22;7429;52.498;13.480;2023-01-04T11:32:41;7.30;99.90
14682;DHT22;7429;52.498;13.480;2023-01-04T11:35:49;7.30;99.90
14682;DHT22;7429;52.498;13.480;2023-01-04T11:38:54;7.40;99.90
14682;DHT22;7429;52.498;13.480;2023-01-04T11:42:03;7.40;99.90
14682;DHT22;7429;52.498;13.480;2023-01-04T11:45:16;7.50;99.90
14682;DHT22;7429;52.498;13.480;2023-01-04T11:48:31;7.40;99.90
14682;DHT22;7429;52.498;13.480;2023-01-04T11:51:37;7.50;99.90
14682;DHT22;7429;52.498;13.480;2023-01-04T11:54:43;7.50;99.90
14682;DHT22;7429;52.498;13.480;2023-01-04T11:58:04;7.50;99.90
14682;DHT22;7429;52.498;13.480;2023-01-04T12:01:21;7.60;99.90
14682;DHT22;7429;52.498;13.480;2023-01-04T12:04:26;7.60;99.90
14682;DHT22;7429;52.498;13.480;2023-01-04T12:07:36;7.70;99.90
14682;DHT22;7429;52.498;13.480;2023-01-04T12:10:39;7.70;99.90
14682;DHT22;7429;52.498;13.480;2023-01-04T12:13:43;7.70;99.90
14682;DHT22;7429;52.498;13.480;2023-01-04T12:16:52;7.70;99.90
14682;DHT22;7429;52.498;13.480;2023-01-04T12:20:02;7.80;99.90
14682;DHT22;7429;52.498;13.480;2023-01-04T12:23:13;7.80;99.90
14682;DHT22;7429;52.498;13.480;2023-01-04T12:26:17;7.90;99.90
14682;DHT22;7429;52.498;13.480;2023-01-04T12:29:51;7.90;99.90
14682;DHT22;7429;52.498;13.480;2023-01-04T12:32:59;7.90;99.90
14682;DHT22;7429;52.498;13.480;2023-01-04T12:36:57;8.00;99.90
14682;DHT22;7429;52.498;13.480;2023-01-04T12:43:58;8.00;99.90
14682;DHT22;7429;52.498;13.480;2023-01-04T12:47:04;8.00;99.90
14682;DHT22;7429;52.498;13.480;2023-01-04T12:51:17;8.10;99.90
14682;DHT22;7429;52.498;13.480;2023-01-04T12:54:44;8.10;99.90
14682;DHT22;7429;52.498;13.480;2023-01-04T12:57:48;8.10;99.90
14682;DHT22;7429;52.498;13.480;2023-01-04T13:01:19;8.10;99.90
14682;DHT22;7429;52.498;13.480;2023-01-04T13:04:29;8.10;99.90
14682;DHT22;7429;52.498;13.480;2023-01-04T13:07:42;8.10;99.90
14682;DHT22;7429;52.498;13.480;2023-01-04T13:10:48;8.10;99.90
14682;DHT22;7429;52.498;13.480;2023-01-04T13:13:55;8.10;99.90
14682;DHT22;7429;52.498;13.480;2023-01-04T13:17:15;8.00;99.90
14682;DHT22;7429;52.498;13.480;2023-01-04T13:20:23;8.00;99.90
14682;DHT22;7429;52.498;13.480;2023-01-04T13:23:28;8.00;99.90
14682;DHT22;7429;52.498;13.480;2023-01-04T13:26:36;8.00;99.90
14682;DHT22;7429;52.498;13.480;2023-01-04T13:29:41;8.00;99.90
14682;DHT22;7429;52.498;13.480;2023-01-04T13:32:44;8.10;99.90
14682;DHT22;7429;52.498;13.480;2023-01-04T13:36:10;8.10;99.90
14682;DHT22;7429;52.498;13.480;2023-01-04T13:39:13;8.10;99.90
14682;DHT22;7429;52.498;13.480;2023-01-04T13:42:23;8.10;99.90
14682;DHT22;7429;52.498;13.480;2023-01-04T13:45:54;8.10;99.90
14682;DHT22;7429;52.498;13.480;2023-01-04T13:49:10;8.20;99.90
14682;DHT22;7429;52.498;13.480;2023-01-04T13:52:21;8.20;99.90
14682;DHT22;7429;52.498;13.480;2023-01-04T13:55:49;8.20;99.90
14682;DHT22;7429;52.498;13.480;2023-01-04T13:58:53;8.20;99.90
14682;DHT22;7429;52.498;13.480;2023-01-04T14:01:56;8.20;99.90
14682;DHT22;7429;52.498;13.480;2023-01-04T14:05:01;8.20;99.90
14682;DHT22;7429;52.498;13.480;2023-01-04T14:08:09;8.20;99.90
14682;DHT22;7429;52.498;13.480;2023-01-04T14:11:19;8.20;99.90
14682;DHT22;7429;52.498;13.480;2023-01-04T14:14:48;8.20;99.90
14682;DHT22;7429;52.498;13.480;2023-01-04T14:17:55;8.30;99.90
14682;DHT22;7429;52.498;13.480;2023-01-04T14:20:59;8.30;99.90
14682;DHT22;7429;52.498;13.480;2023-01-04T14:24:04;8.30;99.90
14682;DHT22;7429;52.498;13.480;2023-01-04T14:28:17;8.30;99.90
14682;DHT22;7429;52.498;13.480;2023-01-04T14:31:42;8.40;99.90
14682;DHT22;7429;52.498;13.480;2023-01-04T14:34:48;8.40;99.90
14682;DHT22;7429;52.498;13.480;2023-01-04T14:37:51;8.40;99.90
14682;DHT22;7429;52.498;13.480;2023-01-04T14:40:54;8.40;99.90
14682;DHT22;7429;52.498;13.480;2023-01-04T14:44:09;8.40;99.90
14682;DHT22;7429;52.498;13.480;2023-01-04T14:47:14;8.50;99.90
14682;DHT22;7429;52.498;13.480;2023-01-04T14:50:17;8.50;99.90
14682;DHT22;7429;52.498;13.480;2023-01-04T14:53:21;8.50;99.90
14682;DHT22;7429;52.498;13.480;2023-01-04T14:56:24;8.60;99.90
14682;DHT22;7429;52.498;13.480;2023-01-04T14:59:29;8.60;99.90
14682;DHT22;7429;52.498;13.480;2023-01-04T15:02:32;8.60;99.90
14682;DHT22;7429;52.498;13.480;2023-01-04T15:05:36;8.60;99.90
14682;DHT22;7429;52.498;13.480;2023-01-04T15:08:39;8.70;99.90
14682;DHT22;7429;52.498;13.480;2023-01-04T15:11:42;8.70;99.90
14682;DHT22;7429;52.498;13.480;2023-01-04T15:14:46;8.70;99.90
14682;DHT22;7429;52.498;13.480;2023-01-04T15:17:51;8.70;99.90
14682;DHT22;7429;52.498;13.480;2023-01-04T15:20:54;8.70;99.90
14682;DHT22;7429;52.498;13.480;2023-01-04T15:23:57;8.70;99.90
14682;DHT22;7429;52.498;13.480;2023-01-04T15:27:00;8.70;99.90
14682;DHT22;7429;52.498;13.480;2023-01-04T15:30:06;8.70;99.90
14682;DHT22;7429;52.498;13.480;2023-01-04T15:33:10;8.80;99.90
14682;DHT22;7429;52.498;13.480;2023-01-04T15:36:16;8.80;99.90
14682;DHT22;7429;52.498;13.480;2023-01-04T15:39:25;8.80;99.90
14682;DHT22;7429;52.498;13.480;2023-01-04T15:42:33;8.80;99.90
14682;DHT22;7429;52.498;13.480;2023-01-04T15:45:55;8.90;99.90
14682;DHT22;7429;52.498;13.480;2023-01-04T15:48:58;8.90;99.90
14682;DHT22;7429;52.498;13.480;2023-01-04T15:52:04;8.90;99.90
14682;DHT22;7429;52.498;13.480;2023-01-04T15:55:08;9.00;99.90
14682;DHT22;7429;52.498;13.480;2023-01-04T15:58:11;9.00;99.90
14682;DHT22;7429;52.498;13.480;2023-01-04T16:01:16;9.00;99.90
14682;DHT22;7429;52.498;13.480;2023-01-04T16:04:19;9.10;99.90
14682;DHT22;7429;52.498;13.480;2023-01-04T16:07:22;9.10;99.90
14682;DHT22;7429;52.498;13.480;2023-01-04T16:10:25;9.10;99.90
14682;DHT22;7429;52.498;13.480;2023-01-04T16:13:29;9.10;99.90
14682;DHT22;7429;52.498;13.480;2023-01-04T16:16:33;9.20;99.90
14682;DHT22;7429;52.498;13.480;2023-01-04T16:19:36;9.20;99.90
14682;DHT22;7429;52.498;13.480;2023-01-04T16:22:40;9.20;99.90
14682;DHT22;7429;52.498;13.480;2023-01-04T16:25:44;9.30;99.90
14682;DHT22;7429;52.498;13.480;2023-01-04T16:28:49;9.30;99.90
14682;DHT22;7429;52.498;13.480;2023-01-04T16:31:53;9.20;99.90
14682;DHT22;7429;52.498;13.480;2023-01-04T16:34:57;9.30;99.90
14682;DHT22;7429;52.498;13.480;2023-01-04T16:38:01;9.30;99.90
14682;DHT22;7429;52.498;13.480;2023-01-04T16:41:05;9.30;99.90
14682;DHT22;7429;52.498;13.480;2023-01-04T16:44:09;9.30;99.90
14682;DHT22;7429;52.498;13.480;2023-01-04T16:47:15;9.30;99.90
14682;DHT22;7429;52.498;13.480;2023-01-04T16:50:18;9.30;99.90
14682;DHT22;7429;52.498;13.480;2023-01-04T16:53:22;9.30;99.90
14682;DHT22;7429;52.498;13.480;2023-01-04T16:56:25;9.30;99.90
14682;DHT22;7429;52.498;13.480;2023-01-04T16:59:29;9.40;99.90
14682;DHT22;7429;52.498;13.480;2023-01-04T17:02:33;9.40;99.90
14682;DHT22;7429;52.498;13.480;2023-01-04T17:05:38;9.50;99.90
14682;DHT22;7429;52.498;13.480;2023-01-04T17:08:42;9.50;99.90
14682;DHT22;7429;52.498;13.480;2023-01-04T17:11:46;9.50;99.90
14682;DHT22;7429;52.498;13.480;2023-01-04T17:15:18;9.60;99.90
14682;DHT22;7429;52.498;13.480;2023-01-04T17:18:42;9.70;99.90
14682;DHT22;7429;52.498;13.480;2023-01-04T17:21:46;9.70;99.90
14682;DHT22;7429;52.498;13.480;2023-01-04T17:24:49;9.70;99.90
14682;DHT22;7429;52.498;13.480;2023-01-04T17:27:53;9.70;99.90
14682;DHT22;7429;52.498;13.480;2023-01-04T17:30:56;9.80;99.90
14682;DHT22;7429;52.498;13.480;2023-01-04T17:34:01;9.90;99.90
14682;DHT22;7429;52.498;13.480;2023-01-04T17:37:07;10.00;99.90
14682;DHT22;7429;52.498;13.480;2023-01-04T17:40:11;10.00;99.90
14682;DHT22;7429;52.498;13.480;2023-01-04T17:43:23;10.00;99.90
14682;DHT22;7429;52.498;13.480;2023-01-04T17:46:27;10.00;99.90
14682;DHT22;7429;52.498;13.480;2023-01-04T17:49:34;10.00;99.90
14682;DHT22;7429;52.498;13.480;2023-01-04T17:52:39;9.90;99.90
14682;DHT22;7429;52.498;13.480;2023-01-04T17:55:42;9.90;99.90
14682;DHT22;7429;52.498;13.480;2023-01-04T17:58:45;10.00;99.90
14682;DHT22;7429;52.498;13.480;2023-01-04T18:01:48;10.00;99.90
14682;DHT22;7429;52.498;13.480;2023-01-04T18:04:53;10.00;99.90
14682;DHT22;7429;52.498;13.480;2023-01-04T18:07:56;10.00;99.90
14682;DHT22;7429;52.498;13.480;2023-01-04T18:11:00;10.00;99.90
14682;DHT22;7429;52.498;13.480;2023-01-04T18:14:09;10.10;99.90
14682;DHT22;7429;52.498;13.480;2023-01-04T18:17:15;10.10;99.90
14682;DHT22;7429;52.498;13.480;2023-01-04T18:20:24;10.20;99.90
14682;DHT22;7429;52.498;13.480;2023-01-04T18:23:30;10.20;99.90
14682;DHT22;7429;52.498;13.480;2023-01-04T18:26:33;10.20;99.90
14682;DHT22;7429;52.498;13.480;2023-01-04T18:29:56;10.20;99.90
14682;DHT22;7429;52.498;13.480;2023-01-04T18:32:59;10.20;99.90
14682;DHT22;7429;52.498;13.480;2023-01-04T18:36:05;10.20;99.90
14682;DHT22;7429;52.498;13.480;2023-01-04T18:39:10;10.30;99.90
14682;DHT22;7429;52.498;13.480;2023-01-04T18:42:13;10.30;99.90
14682;DHT22;7429;52.498;13.480;2023-01-04T18:45:17;10.20;99.90
14682;DHT22;7429;52.498;13.480;2023-01-04T18:48:20;10.20;99.90
14682;DHT22;7429;52.498;13.480;2023-01-04T18:51:25;10.20;99.90
14682;DHT22;7429;52.498;13.480;2023-01-04T18:54:30;10.30;99.90
14682;DHT22;7429;52.498;13.480;2023-01-04T18:57:33;10.30;99.90
14682;DHT22;7429;52.498;13.480;2023-01-04T19:00:37;10.30;99.90
14682;DHT22;7429;52.498;13.480;2023-01-04T19:03:41;10.20;99.90
14682;DHT22;7429;52.498;13.480;2023-01-04T19:06:47;10.20;99.90
14682;DHT22;7429;52.498;13.480;2023-01-04T19:09:51;10.20;99.90
14682;DHT22;7429;52.498;13.480;2023-01-04T19:12:55;10.20;99.90
14682;DHT22;7429;52.498;13.480;2023-01-04T19:15:58;10.30;99.90
14682;DHT22;7429;52.498;13.480;2023-01-04T19:19:02;10.30;99.90
14682;DHT22;7429;52.498;13.480;2023-01-04T19:22:06;10.30;99.90
14682;DHT22;7429;52.498;13.480;2023-01-04T19:25:09;10.30;99.90
14682;DHT22;7429;52.498;13.480;2023-01-04T19:28:13;10.30;99.90
14682;DHT22;7429;52.498;13.480;2023-01-04T19:31:17;10.40;99.90
14682;DHT22;7429;52.498;13.480;2023-01-04T19:34:21;10.30;99.90
14682;DHT22;7429;52.498;13.480;2023-01-04T19:37:27;10.40;99.90
14682;DHT22;7429;52.498;13.480;2023-01-04T19:40:30;10.30;99.90
14682;DHT22;7429;52.498;13.480;2023-01-04T19:43:33;10.40;99.90
14682;DHT22;7429;52.498;13.480;2023-01-04T19:46:37;10.30;99.90
14682;DHT22;7429;52.498;13.480;2023-01-04T19:49:41;10.30;99.90
14682;DHT22;7429;52.498;13.480;2023-01-04T19:52:46;10.30;99.90
14682;DHT22;7429;52.498;13.480;2023-01-04T19:55:49;10.30;99.90
14682;DHT22;7429;52.498;13.480;2023-01-04T19:58:52;10.30;99.90
14682;DHT22;7429;52.498;13.480;2023-01-04T20:01:55;10.30;99.90
14682;DHT22;7429;52.498;13.480;2023-01-04T20:04:59;10.40;99.90
14682;DHT22;7429;52.498;13.480;2023-01-04T20:08:04;10.40;99.90
14682;DHT22;7429;52.498;13.480;2023-01-04T20:11:09;10.40;99.90